Time;durP1;ratioP1;P1;durP2;ratioP2;P2;SDS_P1;SDS_P2;PMS_P1;PMS_P2;Temp;Humidity;BMP_temperature;BMP_pressure;BME280_temperature;BME280_humidity;BME280_pressure;Samples;Min_cycle;Max_cycle;Signal;HPM_P1;HPM_P2
2022/08/07 00:01:16;;;;;;;6.18;3.05;;;;;;;14.17;99.33;102430.94;6231552;28;20060;-77
2022/08/07 00:04:17;;;;;;;6.07;2.88;;;;;;;14.18;98.64;102426.50;6223147;28;20049;-77
2022/08/07 00:07:18;;;;;;;4.28;2.33;;;;;;;14.14;98.46;102427.56;6222983;28;20050;-77
2022/08/07 00:10:21;;;;;;;3.45;2.00;;;;;;;14.09;100.00;102429.53;6222849;28;20053;-77
2022/08/07 00:13:24;;;;;;;5.20;2.10;;;;;;;14.02;100.00;102418.31;6222916;28;20046;-77
2022/08/07 00:16:26;;;;;;;5.25;2.65;;;;;;;13.96;100.00;102419.44;6237322;28;20413;-78
2022/08/07 00:19:27;;;;;;;5.90;2.13;;;;;;;13.94;100.00;102418.66;6247446;28;20056;-77
2022/08/07 00:22:29;;;;;;;6.28;2.65;;;;;;;13.98;100.00;102413.22;6247360;28;20515;-77
2022/08/07 00:25:30;;;;;;;5.13;2.53;;;;;;;13.98;100.00;102415.88;6246950;28;20049;-77
2022/08/07 00:28:34;;;;;;;6.07;2.53;;;;;;;13.86;100.00;102407.53;6247402;28;20136;-77
2022/08/07 00:31:35;;;;;;;6.53;2.83;;;;;;;13.81;100.00;102406.00;6247319;28;20056;-77
2022/08/07 00:34:36;;;;;;;6.25;2.53;;;;;;;13.83;100.00;102406.78;6247542;28;20056;-77
2022/08/07 00:37:38;;;;;;;6.85;2.45;;;;;;;13.81;100.00;102412.16;6247388;28;20049;-78
2022/08/07 00:40:39;;;;;;;4.60;2.65;;;;;;;13.80;100.00;102407.75;6247468;28;20053;-77
2022/08/07 00:43:42;;;;;;;5.10;2.45;;;;;;;13.71;100.00;102408.13;6247330;28;20060;-77
2022/08/07 00:46:44;;;;;;;6.30;3.00;;;;;;;13.68;100.00;102401.22;6247066;28;20057;-77
2022/08/07 00:49:45;;;;;;;4.10;2.40;;;;;;;13.68;100.00;102403.84;6247237;28;20053;-77
2022/08/07 00:52:46;;;;;;;5.60;2.17;;;;;;;13.65;100.00;102403.09;6247141;28;20054;-77
2022/08/07 00:55:48;;;;;;;5.88;2.60;;;;;;;13.62;100.00;102405.84;6247002;28;20456;-77
2022/08/07 00:58:51;;;;;;;11.45;2.67;;;;;;;13.55;100.00;102402.59;6247150;28;20507;-77
2022/08/07 01:01:53;;;;;;;4.95;2.80;;;;;;;13.54;100.00;102408.81;6247337;28;20056;-78
2022/08/07 01:04:54;;;;;;;3.80;2.15;;;;;;;13.54;100.00;102407.97;6246210;28;20061;-76
2022/08/07 01:07:56;;;;;;;3.58;2.40;;;;;;;13.53;100.00;102406.22;6248966;28;20045;-76
2022/08/07 01:10:57;;;;;;;4.35;2.80;;;;;;;13.52;100.00;102402.72;6250882;28;20072;-76
2022/08/07 01:14:00;;;;;;;5.47;2.90;;;;;;;13.53;100.00;102399.16;6250969;28;20057;-76
2022/08/07 01:17:02;;;;;;;3.92;2.53;;;;;;;13.50;100.00;102393.16;6250938;28;20049;-76
2022/08/07 01:20:07;;;;;;;6.10;2.40;;;;;;;13.43;100.00;102396.00;6250574;28;20045;-76
2022/08/07 01:23:10;;;;;;;3.88;2.30;;;;;;;13.39;100.00;102407.59;6250873;28;20046;-75
2022/08/07 01:26:16;;;;;;;8.15;3.47;;;;;;;13.41;100.00;102402.28;6250245;28;20049;-76
2022/08/07 01:29:17;;;;;;;4.60;2.38;;;;;;;13.37;100.00;102404.19;6250740;28;20049;-76
2022/08/07 01:32:19;;;;;;;8.95;2.67;;;;;;;13.34;100.00;102406.94;6250237;28;20045;-76
2022/08/07 01:35:21;;;;;;;3.65;2.63;;;;;;;13.32;100.00;102402.66;6250593;28;20060;-76
2022/08/07 01:38:24;;;;;;;6.32;2.90;;;;;;;13.37;100.00;102408.59;6250294;28;20420;-76
2022/08/07 01:41:26;;;;;;;5.85;3.05;;;;;;;13.34;100.00;102404.28;6250118;28;20053;-76
2022/08/07 01:44:27;;;;;;;4.97;3.08;;;;;;;13.29;100.00;102395.69;6250182;28;20374;-76
2022/08/07 01:47:29;;;;;;;4.93;2.85;;;;;;;13.26;100.00;102390.50;6249770;28;20041;-76
2022/08/07 01:50:31;;;;;;;4.35;2.67;;;;;;;13.19;100.00;102381.94;6250093;28;20505;-76
2022/08/07 01:53:37;;;;;;;5.50;2.75;;;;;;;13.20;100.00;102388.94;6250434;28;20049;-76
2022/08/07 01:56:46;;;;;;;5.13;3.00;;;;;;;13.20;100.00;102394.22;6249678;28;20045;-76
2022/08/07 01:59:53;;;;;;;3.97;2.20;;;;;;;13.23;100.00;102390.66;6250128;28;20049;-76
2022/08/07 02:02:58;;;;;;;4.00;2.65;;;;;;;13.18;100.00;102385.50;6249727;28;20424;-76
2022/08/07 02:06:03;;;;;;;4.47;2.03;;;;;;;13.09;100.00;102385.88;6249967;28;20053;-76
2022/08/07 02:09:09;;;;;;;3.92;2.55;;;;;;;13.04;100.00;102384.31;6249668;28;20049;-76
2022/08/07 02:12:18;;;;;;;7.95;2.85;;;;;;;13.04;100.00;102384.31;6249520;28;20050;-76
2022/08/07 02:15:20;;;;;;;;;;;;;;;13.01;100.00;102382.63;6249798;28;20049;-76
2022/08/07 02:18:23;;;;;;;9.00;2.95;;;;;;;12.96;100.00;102392.50;6249159;28;19979;-76
2022/08/07 02:21:26;;;;;;;5.70;2.70;;;;;;;12.88;100.00;102389.28;6249515;28;20057;-76
2022/08/07 02:24:30;;;;;;;3.47;2.30;;;;;;;12.84;100.00;102387.69;6249016;28;20056;-76
2022/08/07 02:27:32;;;;;;;4.65;2.67;;;;;;;12.86;100.00;102386.72;6249264;28;20057;-76
2022/08/07 02:30:36;;;;;;;5.05;2.92;;;;;;;12.78;100.00;102383.50;6248851;28;20049;-75
2022/08/07 02:33:38;;;;;;;4.53;2.90;;;;;;;12.78;100.00;102387.91;6249445;28;20060;-76
2022/08/07 02:36:40;;;;;;;5.15;2.95;;;;;;;12.72;100.00;102396.03;6248707;28;20053;-76
2022/08/07 02:39:47;;;;;;;8.73;2.65;;;;;;;12.69;100.00;102389.09;6248709;28;20428;-76
2022/08/07 02:42:50;;;;;;;5.82;2.78;;;;;;;12.63;100.00;102374.34;6248960;28;20420;-76
2022/08/07 02:45:54;;;;;;;7.30;2.90;;;;;;;12.63;100.00;102379.63;6229167;28;20050;-76
2022/08/07 02:48:55;;;;;;;7.65;3.55;;;;;;;12.62;100.00;102382.31;6224405;28;20049;-76
2022/08/07 02:52:01;;;;;;;3.78;2.80;;;;;;;12.59;100.00;102383.28;6224192;28;20050;-76
2022/08/07 02:55:08;;;;;;;5.97;3.13;;;;;;;12.54;100.00;102377.31;6242824;28;20524;-76
2022/08/07 02:58:13;;;;;;;7.40;2.70;;;;;;;12.49;100.00;102378.38;6248831;28;20068;-76
2022/08/07 03:01:17;;;;;;;5.07;2.92;;;;;;;12.43;100.00;102375.03;6248531;28;20053;-76
2022/08/07 03:04:19;;;;;;;7.03;3.10;;;;;;;12.44;100.00;102370.63;6248384;28;20053;-76
2022/08/07 03:07:20;;;;;;;6.20;3.30;;;;;;;12.39;100.00;102367.28;6248086;28;20416;-76
2022/08/07 03:10:23;;;;;;;6.72;3.15;;;;;;;12.35;100.00;102369.19;6248463;28;20064;-76
2022/08/07 03:13:25;;;;;;;4.13;2.38;;;;;;;12.31;100.00;102367.59;6248156;28;20057;-75
2022/08/07 03:16:26;;;;;;;4.38;2.47;;;;;;;12.33;100.00;102367.53;6248041;28;20520;-76
2022/08/07 03:19:29;;;;;;;5.25;2.72;;;;;;;12.28;100.00;102367.69;6247951;28;20049;-76
2022/08/07 03:22:31;;;;;;;4.55;2.63;;;;;;;12.24;100.00;102363.41;6248105;28;20057;-76
2022/08/07 03:25:37;;;;;;;6.60;3.10;;;;;;;12.24;100.00;102366.06;6247695;28;20056;-76
2022/08/07 03:28:41;;;;;;;5.53;3.15;;;;;;;12.24;100.00;102368.69;6247806;28;20045;-76
2022/08/07 03:31:44;;;;;;;5.05;2.75;;;;;;;12.25;100.00;102365.13;6247155;28;20508;-76
2022/08/07 03:34:49;;;;;;;9.88;3.35;;;;;;;12.19;100.00;102375.91;6247453;28;20050;-75
2022/08/07 03:37:55;;;;;;;7.78;2.78;;;;;;;12.19;100.00;102378.53;6247629;28;20045;-76
2022/08/07 03:41:00;;;;;;;6.43;3.03;;;;;;;12.13;100.00;102379.63;6245264;28;20049;-76
2022/08/07 03:44:01;;;;;;;9.45;3.70;;;;;;;12.13;100.00;102373.47;6239114;28;20053;-76
2022/08/07 03:47:05;;;;;;;8.95;3.30;;;;;;;12.06;100.00;102380.72;6238508;28;20045;-76
2022/08/07 03:50:07;;;;;;;7.22;3.72;;;;;;;12.07;100.00;102384.22;6247321;28;20119;-76
2022/08/07 03:53:08;;;;;;;8.35;2.97;;;;;;;12.05;100.00;102379.00;6247198;28;20045;-76
2022/08/07 03:56:14;;;;;;;6.30;3.30;;;;;;;12.08;100.00;102380.66;6243877;28;20053;-76
2022/08/07 03:59:15;;;;;;;6.68;3.60;;;;;;;12.08;100.00;102385.94;6235573;28;20485;-76
2022/08/07 04:02:17;;;;;;;6.25;3.15;;;;;;;12.02;100.00;102380.88;6247293;28;20049;-76
2022/08/07 04:05:20;;;;;;;4.53;2.83;;;;;;;12.02;100.00;102394.91;6246865;28;20053;-76
2022/08/07 04:08:21;;;;;;;4.82;3.00;;;;;;;12.05;100.00;102392.19;6247154;28;20046;-76
2022/08/07 04:11:24;;;;;;;4.90;2.67;;;;;;;12.03;100.00;102396.63;6247001;28;20502;-76
2022/08/07 04:14:27;;;;;;;6.47;3.63;;;;;;;12.01;100.00;102395.81;6246987;28;20421;-76
2022/08/07 04:17:28;;;;;;;5.22;2.97;;;;;;;12.00;100.00;102393.25;6246894;28;20052;-76
2022/08/07 04:20:30;;;;;;;5.03;2.65;;;;;;;11.99;100.00;102395.03;6242011;28;20064;-76
2022/08/07 04:23:32;;;;;;;4.82;2.50;;;;;;;12.02;100.00;102399.31;6237457;28;20037;-76
2022/08/07 04:26:35;;;;;;;7.68;3.20;;;;;;;12.01;100.00;102398.47;6246462;28;20407;-76
2022/08/07 04:29:37;;;;;;;5.88;2.95;;;;;;;12.02;100.00;102400.19;6246777;28;20046;-76
2022/08/07 04:32:38;;;;;;;5.40;3.10;;;;;;;12.04;100.00;102392.25;6246723;28;20485;-76
2022/08/07 04:35:40;;;;;;;6.07;2.90;;;;;;;12.07;100.00;102394.75;6246672;28;20053;-75
2022/08/07 04:38:41;;;;;;;6.80;3.40;;;;;;;12.04;100.00;102394.88;6246689;28;20052;-76
2022/08/07 04:41:44;;;;;;;4.60;2.33;;;;;;;12.04;100.00;102401.00;6247219;28;20057;-76
2022/08/07 04:44:45;;;;;;;5.82;3.42;;;;;;;12.11;100.00;102406.91;6251459;28;20049;-76
2022/08/07 04:47:59;;;;;;;7.25;3.17;;;;;;;12.16;100.00;102399.72;6251573;28;20053;-76
2022/08/07 04:51:06;;;;;;;4.65;2.60;;;;;;;12.23;100.00;102403.88;6251446;28;20104;-76
2022/08/07 04:54:17;;;;;;;3.58;2.22;;;;;;;12.28;100.00;102401.09;6251644;28;20049;-76
2022/08/07 04:57:27;;;;;;;4.35;2.55;;;;;;;12.35;100.00;102397.31;6251323;28;20045;-76
2022/08/07 05:00:40;;;;;;;5.95;2.85;;;;;;;12.35;100.00;102397.31;6251340;28;20056;-76
2022/08/07 05:03:47;;;;;;;4.95;2.63;;;;;;;12.37;100.00;102392.88;6251235;28;20053;-75
2022/08/07 05:06:56;;;;;;;4.60;2.70;;;;;;;12.42;100.00;102397.06;6251173;28;20049;-76
2022/08/07 05:10:02;;;;;;;5.25;3.20;;;;;;;12.46;100.00;102402.25;6251029;28;20049;-76
2022/08/07 05:13:09;;;;;;;5.18;3.10;;;;;;;12.52;100.00;102405.50;6250941;28;20049;-76
2022/08/07 05:16:14;;;;;;;5.32;3.05;;;;;;;12.55;100.00;102396.63;6250663;28;20049;-76
2022/08/07 05:19:19;;;;;;;6.07;3.30;;;;;;;12.60;100.00;102397.34;6251166;28;20057;-76
2022/08/07 05:22:22;;;;;;;4.07;2.55;;;;;;;12.63;100.00;102410.44;6238827;28;20060;-75
2022/08/07 05:25:26;;;;;;;5.22;2.90;;;;;;;12.64;100.00;102394.53;6237089;28;20053;-75
2022/08/07 05:28:31;;;;;;;5.32;2.75;;;;;;;12.68;100.00;102396.16;6234008;28;20037;-75
2022/08/07 05:31:37;;;;;;;8.77;3.15;;;;;;;12.74;100.00;102397.69;6250734;28;20050;-76
2022/08/07 05:34:41;;;;;;;6.47;3.53;;;;;;;12.78;100.00;102406.38;6250282;28;20140;-76
2022/08/07 05:37:43;;;;;;;6.35;2.92;;;;;;;12.81;100.00;102411.53;6250570;28;20056;-75
2022/08/07 05:40:44;;;;;;;4.95;2.92;;;;;;;12.87;100.00;102398.97;6250323;28;20057;-76
2022/08/07 05:43:49;;;;;;;6.32;2.67;;;;;;;12.96;100.00;102405.72;6250456;28;20053;-76
2022/08/07 05:46:51;;;;;;;10.55;3.28;;;;;;;13.01;100.00;102401.13;6250455;28;20049;-75
2022/08/07 05:49:54;;;;;;;5.20;3.03;;;;;;;13.07;100.00;102406.16;6249983;28;20057;-76
2022/08/07 05:52:55;;;;;;;7.10;3.55;;;;;;;13.12;100.00;102409.47;6249662;28;20064;-76
2022/08/07 05:55:57;;;;;;;5.93;3.10;;;;;;;13.17;100.00;102410.19;6243612;28;20050;-75
2022/08/07 05:59:05;;;;;;;6.22;3.00;;;;;;;13.25;100.00;102411.69;6247196;28;20053;-75
2022/08/07 06:02:08;;;;;;;6.57;3.05;;;;;;;13.30;100.00;102410.59;6249893;28;20529;-75
2022/08/07 06:05:11;;;;;;;6.88;3.42;;;;;;;13.34;100.00;102417.50;6249665;28;20057;-75
2022/08/07 06:08:13;;;;;;;6.18;3.35;;;;;;;13.39;100.00;102418.16;6249578;28;20048;-76
2022/08/07 06:11:16;;;;;;;6.00;3.40;;;;;;;13.45;100.00;102410.03;6249807;28;20093;-75
2022/08/07 06:14:19;;;;;;;4.72;2.72;;;;;;;13.52;100.00;102413.28;6249443;28;20049;-75
2022/08/07 06:17:20;;;;;;;6.82;3.55;;;;;;;13.56;100.00;102420.16;6249619;28;20485;-75
2022/08/07 06:20:23;;;;;;;6.88;3.40;;;;;;;13.61;100.00;102420.00;6249254;28;20045;-75
2022/08/07 06:23:24;;;;;;;7.03;3.63;;;;;;;13.64;100.00;102423.38;6237664;28;20128;-75
2022/08/07 06:26:26;;;;;;;5.15;3.17;;;;;;;13.73;100.00;102421.31;6235311;28;20050;-75
2022/08/07 06:29:29;;;;;;;7.68;3.63;;;;;;;13.79;100.00;102426.34;6236785;28;20045;-75
2022/08/07 06:32:30;;;;;;;6.90;3.50;;;;;;;13.85;100.00;102432.25;6224577;28;20050;-75
2022/08/07 06:35:34;;;;;;;5.70;3.05;;;;;;;13.89;100.00;102420.59;6224250;28;20494;-76
2022/08/07 06:38:35;;;;;;;5.40;2.92;;;;;;;13.93;100.00;102416.91;6224646;28;20053;-75
2022/08/07 06:41:49;;;;;;;5.20;3.15;;;;;;;13.98;100.00;102413.22;6224289;28;20058;-76
2022/08/07 06:44:53;;;;;;;6.57;3.83;;;;;;;14.05;100.00;102412.06;6224409;28;20050;-76
2022/08/07 06:47:54;;;;;;;7.30;3.42;;;;;;;14.10;100.00;102408.31;6224416;28;20048;-75
2022/08/07 06:51:00;;;;;;;5.88;2.72;;;;;;;14.17;100.00;102399.22;6224189;28;20057;-75
2022/08/07 06:54:03;;;;;;;6.93;3.50;;;;;;;14.23;100.00;102399.88;6224063;28;20057;-75
2022/08/07 06:57:06;;;;;;;5.28;2.90;;;;;;;14.29;100.00;102410.19;6224150;28;20497;-75
2022/08/07 07:00:11;;;;;;;6.60;3.92;;;;;;;14.33;100.00;102404.69;6224146;28;20069;-75
2022/08/07 07:03:13;;;;;;;3.70;2.25;;;;;;;14.40;100.00;102405.31;6224116;28;20053;-76
2022/08/07 07:06:14;;;;;;;4.65;2.85;;;;;;;14.46;100.00;102399.75;6222845;28;20053;-76
2022/08/07 07:09:20;;;;;;;6.13;2.75;;;;;;;14.50;100.00;102400.50;6224063;28;20053;-75
2022/08/07 07:12:34;;;;;;;6.45;2.70;;;;;;;14.58;100.00;102404.53;6223568;28;20054;-75
2022/08/07 07:15:42;;;;;;;3.97;2.80;;;;;;;14.65;100.00;102405.97;6223829;28;20421;-75
2022/08/07 07:18:48;;;;;;;5.32;3.17;;;;;;;14.70;100.00;102411.94;6228064;28;20056;-76
2022/08/07 07:21:51;;;;;;;4.25;2.80;;;;;;;14.81;100.00;102407.97;6235039;28;20053;-76
2022/08/07 07:24:53;;;;;;;6.18;3.33;;;;;;;14.90;100.00;102400.47;6232710;28;20049;-75
2022/08/07 07:28:00;;;;;;;5.15;2.72;;;;;;;14.96;100.00;102400.19;6227544;28;20041;-75
2022/08/07 07:31:06;;;;;;;5.30;2.90;;;;;;;15.06;98.81;102395.31;6236970;28;20049;-75
2022/08/07 07:34:12;;;;;;;5.57;3.00;;;;;;;15.16;97.18;102399.25;6234278;28;20057;-76
2022/08/07 07:37:15;;;;;;;7.05;2.78;;;;;;;15.24;96.81;102398.91;6238661;28;20049;-75
2022/08/07 07:40:19;;;;;;;3.70;2.65;;;;;;;15.30;97.57;102395.13;6247350;28;20455;-75
2022/08/07 07:43:22;;;;;;;6.28;2.72;;;;;;;15.39;96.78;102389.38;6247813;28;20057;-76
2022/08/07 07:46:28;;;;;;;6.32;2.60;;;;;;;15.48;95.76;102386.28;6247129;28;20485;-76
2022/08/07 07:49:31;;;;;;;3.63;2.30;;;;;;;15.55;93.96;102378.94;6247323;28;20049;-75
2022/08/07 07:52:33;;;;;;;4.78;2.70;;;;;;;15.63;93.63;102382.06;6243587;28;20481;-76
2022/08/07 07:55:35;;;;;;;4.80;2.70;;;;;;;15.72;91.90;102379.88;6244595;28;20054;-76
2022/08/07 07:58:39;;;;;;;3.97;2.55;;;;;;;15.87;88.07;102372.09;6243403;28;20095;-75
2022/08/07 08:01:44;;;;;;;4.85;2.70;;;;;;;15.94;87.79;102376.13;6238263;28;20054;-76
2022/08/07 08:04:47;;;;;;;5.90;2.70;;;;;;;16.01;88.06;102380.22;6223409;28;20061;-76
2022/08/07 08:07:49;;;;;;;4.68;2.58;;;;;;;16.07;87.74;102377.25;6222735;28;20479;-76
2022/08/07 08:10:51;;;;;;;5.05;2.67;;;;;;;16.19;82.60;102371.31;6222246;28;20050;-76
2022/08/07 08:13:53;;;;;;;5.10;3.20;;;;;;;16.23;83.27;102369.38;6222710;28;20053;-76
2022/08/07 08:16:58;;;;;;;6.10;2.42;;;;;;;16.29;81.77;102366.41;6222251;28;20103;-76
2022/08/07 08:20:03;;;;;;;3.17;2.13;;;;;;;16.36;79.87;102372.25;6228372;28;20045;-75
2022/08/07 08:29:49;;;;;;;4.82;2.70;;;;;;;16.59;77.97;102360.44;6246415;28;20045;-76
2022/08/07 08:32:58;;;;;;;4.15;2.67;;;;;;;16.66;77.49;102360.00;6246949;28;20132;-76
2022/08/07 08:36:01;;;;;;;4.65;2.53;;;;;;;16.69;76.23;102343.94;6246396;28;20049;-76
2022/08/07 08:39:04;;;;;;;4.50;2.58;;;;;;;16.76;76.21;102346.28;6246776;28;20057;-76
2022/08/07 08:42:11;;;;;;;3.60;1.88;;;;;;;16.86;74.93;102344.88;6246590;28;20144;-76
2022/08/07 08:45:21;;;;;;;5.68;2.10;;;;;;;16.92;74.18;102340.06;6246571;28;20050;-76
2022/08/07 08:48:29;;;;;;;4.55;2.30;;;;;;;17.04;71.33;102329.72;6246383;28;20611;-76
2022/08/07 08:51:35;;;;;;;3.20;1.67;;;;;;;17.08;66.36;102329.47;6246622;28;20052;-75
2022/08/07 08:54:42;;;;;;;4.10;1.98;;;;;;;17.10;66.68;102329.38;6246183;28;20317;-75
2022/08/07 08:57:49;;;;;;;2.85;1.92;;;;;;;17.09;67.01;102327.69;6246506;28;20582;-76
2022/08/07 09:00:54;;;;;;;4.30;1.92;;;;;;;17.12;66.27;102327.47;6246284;28;20050;-76
2022/08/07 09:04:05;;;;;;;2.50;1.70;;;;;;;17.25;64.85;102339.13;6246382;28;20060;-76
2022/08/07 09:07:14;;;;;;;3.30;1.75;;;;;;;17.32;65.66;102337.00;6236204;28;20133;-76
2022/08/07 09:10:22;;;;;;;2.78;1.38;;;;;;;17.38;64.60;102340.16;6221448;28;20046;-75
2022/08/07 09:13:31;;;;;;;3.33;1.30;;;;;;;17.41;65.08;102341.81;6221816;28;20053;-76
2022/08/07 09:16:43;;;;;;;2.97;1.23;;;;;;;17.44;64.31;102345.16;6221770;28;20057;-76
2022/08/07 09:19:57;;;;;;;2.53;1.38;;;;;;;17.46;62.94;102345.91;6221693;28;20045;-75
2022/08/07 09:23:11;;;;;;;3.80;2.05;;;;;;;17.46;63.09;102332.63;6233056;28;20426;-76
2022/08/07 09:26:18;;;;;;;5.18;1.75;;;;;;;17.50;64.74;102333.31;6227967;28;20045;-75
2022/08/07 09:29:26;;;;;;;2.58;1.60;;;;;;;17.60;64.66;102333.63;6240702;28;20057;-75
2022/08/07 09:32:46;;;;;;;1.80;1.30;;;;;;;17.75;61.23;102330.09;6225885;28;20046;-75
2022/08/07 09:35:55;;;;;;;1.88;1.40;;;;;;;17.85;60.42;102333.97;6235010;28;20521;-76
2022/08/07 09:39:02;;;;;;;3.17;1.40;;;;;;;17.93;60.55;102322.84;6233367;28;20050;-74
2022/08/07 09:42:11;;;;;;;4.22;1.40;;;;;;;18.00;61.37;102322.41;6225936;28;20046;-76
2022/08/07 09:45:18;;;;;;;2.33;1.40;;;;;;;18.06;60.92;102315.00;6235448;28;20052;-74
2022/08/07 09:48:34;;;;;;;2.60;1.20;;;;;;;18.09;61.05;102313.03;6240275;28;20049;-74
2022/08/07 09:52:00;;;;;;;1.98;1.48;;;;;;;18.35;62.32;102305.25;6247547;28;20638;-74
2022/08/07 09:55:14;;;;;;;1.98;1.40;;;;;;;18.46;61.28;102303.66;6236131;28;20512;-76
2022/08/07 09:58:38;;;;;;;2.00;1.30;;;;;;;18.55;59.87;102296.06;6235057;28;20045;-76
2022/08/07 10:01:57;;;;;;;1.98;1.45;;;;;;;18.52;59.23;102297.94;6235332;28;20037;-76
2022/08/07 10:05:21;;;;;;;1.10;1.00;;;;;;;18.46;58.84;102284.16;6237030;28;20135;-76
2022/08/07 10:08:46;;;;;;;2.67;1.25;;;;;;;18.51;56.94;102288.25;6239198;28;20050;-76
2022/08/07 10:11:58;;;;;;;2.28;1.25;;;;;;;18.49;58.67;102276.00;6232978;28;20061;-76
2022/08/07 10:15:24;;;;;;;1.55;1.30;;;;;;;18.59;59.55;102282.44;6244057;28;20054;-74
2022/08/07 10:18:51;;;;;;;2.88;1.60;;;;;;;18.72;57.23;102274.59;6249627;28;20046;-76
2022/08/07 10:22:08;;;;;;;2.75;1.55;;;;;;;18.88;56.57;102277.13;6249307;28;20046;-73
2022/08/07 10:25:20;;;;;;;2.47;1.50;;;;;;;18.95;57.22;102267.78;6249493;28;20056;-76
2022/08/07 10:28:45;;;;;;;3.55;1.27;;;;;;;19.04;55.83;102266.34;6249971;28;20045;-76
2022/08/07 10:32:08;;;;;;;2.45;1.30;;;;;;;19.08;55.46;102263.38;6249733;28;20057;-76
2022/08/07 10:35:19;;;;;;;1.83;1.05;;;;;;;19.15;54.51;102258.50;6248971;28;20072;-76
2022/08/07 10:38:36;;;;;;;1.40;1.10;;;;;;;19.25;54.51;102263.09;6249736;28;20049;-76
2022/08/07 10:41:44;;;;;;;2.45;1.40;;;;;;;19.29;55.19;102261.09;6248882;28;20053;-76
2022/08/07 10:44:52;;;;;;;2.33;1.33;;;;;;;19.44;55.16;102249.44;6248883;28;20571;-76
2022/08/07 10:48:04;;;;;;;2.50;1.42;;;;;;;19.57;54.25;102252.09;6248932;28;20075;-75
2022/08/07 10:51:10;;;;;;;1.75;1.10;;;;;;;19.67;54.08;102250.59;6242851;28;20045;-76
2022/08/07 10:54:17;;;;;;;1.42;1.08;;;;;;;19.87;53.67;102253.69;6237676;28;20068;-76
2022/08/07 10:57:26;;;;;;;1.33;1.00;;;;;;;20.16;53.20;102239.19;6226899;28;20054;-76
2022/08/07 11:00:33;;;;;;;2.17;1.05;;;;;;;20.19;51.85;102236.31;6224255;28;20061;-76
2022/08/07 11:03:42;;;;;;;1.55;0.90;;;;;;;20.31;52.58;102231.06;6224207;28;20050;-76
2022/08/07 11:06:50;;;;;;;1.25;0.95;;;;;;;20.40;46.88;102225.94;6224152;28;20054;-77
2022/08/07 11:09:57;;;;;;;3.85;1.40;;;;;;;20.42;45.58;102225.81;6223768;28;20053;-76
2022/08/07 11:13:07;;;;;;;3.47;1.05;;;;;;;20.47;47.25;102219.19;6223752;28;20529;-76
2022/08/07 11:16:11;;;;;;;1.05;0.90;;;;;;;20.50;46.26;102204.78;6224216;28;20057;-76
2022/08/07 11:19:19;;;;;;;1.65;0.90;;;;;;;20.59;46.34;102211.28;6224593;28;20046;-75
2022/08/07 11:22:25;;;;;;;1.00;0.90;;;;;;;20.82;47.28;102206.94;6223589;28;20410;-75
2022/08/07 11:25:33;;;;;;;2.13;1.30;;;;;;;21.02;46.07;102209.81;6232510;28;20054;-75
2022/08/07 11:28:45;;;;;;;0.90;0.68;;;;;;;21.06;44.45;102201.59;6232693;28;20049;-75
2022/08/07 11:31:52;;;;;;;2.20;0.80;;;;;;;20.96;43.18;102206.78;6234038;28;20057;-75
2022/08/07 11:34:58;;;;;;;0.80;0.57;;;;;;;21.00;44.54;102197.56;6236574;28;20049;-76
2022/08/07 11:38:09;;;;;;;1.77;0.77;;;;;;;21.23;44.28;102191.34;6241545;28;20053;-76
2022/08/07 11:41:14;;;;;;;2.70;0.90;;;;;;;21.60;45.06;102191.25;6247457;28;20057;-76
2022/08/07 11:44:27;;;;;;;2.17;0.90;;;;;;;21.95;45.03;102175.13;6247403;28;20049;-76
2022/08/07 11:47:41;;;;;;;1.13;0.90;;;;;;;22.15;42.13;102176.22;6235914;28;20041;-77
2022/08/07 11:50:52;;;;;;;1.05;0.88;;;;;;;22.44;42.95;102171.22;6230643;28;20061;-76
2022/08/07 11:54:09;;;;;;;1.92;0.85;;;;;;;22.81;42.31;102170.91;6232639;28;20046;-76
2022/08/07 11:57:20;;;;;;;1.00;0.68;;;;;;;23.13;41.33;102164.72;6239461;28;20045;-76
2022/08/07 12:00:38;;;;;;;0.77;0.73;;;;;;;23.32;39.82;102166.69;6238399;28;20119;-76
2022/08/07 12:04:02;;;;;;;1.42;0.88;;;;;;;23.58;40.09;102157.28;6232148;28;20151;-76
2022/08/07 12:07:12;;;;;;;1.23;0.90;;;;;;;23.89;40.52;102154.63;6233258;28;20045;-75
2022/08/07 12:10:19;;;;;;;1.42;0.70;;;;;;;23.98;37.51;102153.81;6246113;28;20052;-76
2022/08/07 12:13:27;;;;;;;1.27;0.82;;;;;;;23.91;38.00;102149.97;6247003;28;20516;-77
2022/08/07 12:16:35;;;;;;;1.85;1.02;;;;;;;23.83;38.63;102153.31;6245706;28;20060;-76
2022/08/07 12:19:46;;;;;;;0.97;0.70;;;;;;;24.08;38.22;102153.88;6246948;28;20054;-75
2022/08/07 12:23:06;;;;;;;1.02;0.77;;;;;;;24.16;38.52;102143.28;6247123;28;20045;-77
2022/08/07 12:26:14;;;;;;;1.25;0.80;;;;;;;24.20;39.53;102148.25;6246759;28;20464;-76
2022/08/07 12:29:20;;;;;;;2.40;0.85;;;;;;;24.42;38.20;102146.34;6246805;28;20045;-76
2022/08/07 12:32:30;;;;;;;3.33;0.80;;;;;;;24.62;37.11;102145.41;6246857;28;20203;-76
2022/08/07 12:35:34;;;;;;;0.80;0.70;;;;;;;24.13;35.65;102138.19;6246769;28;20049;-77
2022/08/07 12:38:38;;;;;;;0.65;0.60;;;;;;;23.86;35.97;102142.31;6246644;28;20053;-75
2022/08/07 12:41:41;;;;;;;1.33;0.98;;;;;;;23.54;36.35;102124.47;6246326;28;20046;-76
2022/08/07 12:44:47;;;;;;;1.23;0.73;;;;;;;23.51;38.99;102134.63;6246369;28;20060;-76
2022/08/07 12:47:58;;;;;;;0.70;0.70;;;;;;;23.53;37.97;102124.63;6246613;28;20052;-76
2022/08/07 12:51:07;;;;;;;1.80;0.90;;;;;;;23.89;38.88;102123.28;6246463;28;20413;-76
2022/08/07 12:54:16;;;;;;;2.28;1.05;;;;;;;24.55;38.30;102125.44;6246444;28;20057;-77
2022/08/07 12:57:24;;;;;;;0.90;0.70;;;;;;;24.49;36.02;102110.72;6246641;28;20053;-76
2022/08/07 13:00:31;;;;;;;1.45;0.77;;;;;;;24.19;36.17;102113.47;6239743;28;20533;-77
2022/08/07 13:04:10;;;;;;;1.65;0.70;;;;;;;23.73;38.21;102117.53;6233903;28;20469;-77
2022/08/07 13:07:35;;;;;;;1.50;0.70;;;;;;;23.30;38.68;102113.19;6204910;28;20056;-77
2022/08/07 13:10:51;;;;;;;0.80;0.75;;;;;;;23.12;39.58;102114.72;6239718;28;20038;-77
2022/08/07 13:14:01;;;;;;;1.40;0.60;;;;;;;23.24;39.44;102100.28;6238683;28;20506;-77
2022/08/07 13:17:10;;;;;;;0.95;0.85;;;;;;;23.66;37.51;102097.56;6226568;28;20049;-78
2022/08/07 13:20:18;;;;;;;1.50;0.98;;;;;;;24.15;37.64;102104.81;6228764;28;20054;-77
2022/08/07 13:23:29;;;;;;;2.25;1.10;;;;;;;24.45;36.92;102098.56;6240617;28;20050;-77
2022/08/07 13:26:41;;;;;;;1.83;0.90;;;;;;;24.99;35.58;102102.53;6249439;28;20068;-77
2022/08/07 13:29:49;;;;;;;0.75;0.65;;;;;;;24.85;34.95;102092.22;6250649;28;20045;-76
2022/08/07 13:32:58;;;;;;;0.83;0.70;;;;;;;25.08;35.37;102089.25;6236960;28;20046;-77
2022/08/07 13:36:05;;;;;;;1.30;0.88;;;;;;;25.39;35.41;102090.75;6241940;28;20053;-77
2022/08/07 13:39:15;;;;;;;1.15;0.90;;;;;;;25.15;33.29;102091.22;6251104;28;20046;-77
2022/08/07 13:42:18;;;;;;;1.55;0.90;;;;;;;25.37;34.10;102089.19;6243370;28;20050;-78
2022/08/07 13:45:21;;;;;;;0.95;0.80;;;;;;;25.50;34.03;102073.56;6232713;28;20054;-77
2022/08/07 13:48:24;;;;;;;1.83;0.95;;;;;;;25.97;34.19;102074.38;6247823;28;20053;-77
2022/08/07 13:51:26;;;;;;;0.80;0.70;;;;;;;26.08;33.86;102067.94;6250577;28;20045;-77
2022/08/07 13:54:32;;;;;;;1.08;0.75;;;;;;;26.43;31.86;102067.16;6245711;28;20056;-76
2022/08/07 13:57:35;;;;;;;3.20;0.63;;;;;;;26.39;30.98;102064.88;6240296;28;20121;-78
2022/08/07 14:00:38;;;;;;;1.02;0.75;;;;;;;26.04;30.74;102062.00;6250835;28;20052;-79
2022/08/07 14:03:41;;;;;;;1.23;1.10;;;;;;;26.16;32.43;102059.06;6251323;28;20057;-78
2022/08/07 14:06:44;;;;;;;1.20;0.70;;;;;;;26.42;31.04;102054.63;6242068;28;20050;-76
2022/08/07 14:09:53;;;;;;;0.77;0.70;;;;;;;26.16;30.50;102053.69;6241229;28;20049;-76
2022/08/07 14:12:57;;;;;;;1.00;0.90;;;;;;;26.43;30.35;102053.66;6233061;28;20060;-75
2022/08/07 14:16:03;;;;;;;0.82;0.75;;;;;;;26.61;31.32;102047.44;6234178;28;20525;-79
2022/08/07 14:19:14;;;;;;;0.90;0.68;;;;;;;26.36;30.54;102046.34;6230093;28;20060;-79
2022/08/07 14:22:20;;;;;;;1.20;0.90;;;;;;;25.92;30.98;102051.56;6225961;28;20053;-78
2022/08/07 14:25:29;;;;;;;4.30;0.80;;;;;;;25.60;32.24;102044.75;6226306;28;20061;-78
2022/08/07 14:28:32;;;;;;;;;;;;;;;26.25;32.55;102047.38;6226155;28;20054;-78